sensor_id;sensor_type;location;lat;lon;timestamp;pressure;altitude;pressure_sealevel;temperature;humidity
30682;BME280;17439;48.092;11.842;2023-06-26T00:00:49;95471.50;;;20.41;44.92
30682;BME280;17439;48.092;11.842;2023-06-26T00:03:16;95478.53;;;20.39;45.17
30682;BME280;17439;48.092;11.842;2023-06-26T00:05:43;95468.28;;;20.36;45.08
30682;BME280;17439;48.092;11.842;2023-06-26T00:08:10;95473.75;;;20.32;45.11
30682;BME280;17439;48.092;11.842;2023-06-26T00:10:36;95473.34;;;20.30;44.89
30682;BME280;17439;48.092;11.842;2023-06-26T00:13:04;95470.09;;;20.24;45.12
30682;BME280;17439;48.092;11.842;2023-06-26T00:15:30;95468.88;;;20.22;45.16
30682;BME280;17439;48.092;11.842;2023-06-26T00:17:58;95467.28;;;20.17;45.43
30682;BME280;17439;48.092;11.842;2023-06-26T00:20:25;95468.38;;;20.13;45.37
30682;BME280;17439;48.092;11.842;2023-06-26T00:22:51;95471.06;;;20.09;45.29
30682;BME280;17439;48.092;11.842;2023-06-26T00:25:18;95469.44;;;20.04;45.17
30682;BME280;17439;48.092;11.842;2023-06-26T00:27:45;95476.47;;;20.02;45.38
30682;BME280;17439;48.092;11.842;2023-06-26T00:30:12;95478.00;;;19.99;45.28
30682;BME280;17439;48.092;11.842;2023-06-26T00:32:38;95479.19;;;19.98;45.04
30682;BME280;17439;48.092;11.842;2023-06-26T00:35:05;95470.06;;;19.94;44.98
30682;BME280;17439;48.092;11.842;2023-06-26T00:37:32;95474.72;;;19.90;45.12
30682;BME280;17439;48.092;11.842;2023-06-26T00:39:59;95479.41;;;19.86;45.23
30682;BME280;17439;48.092;11.842;2023-06-26T00:42:26;95484.84;;;19.82;45.85
30682;BME280;17439;48.092;11.842;2023-06-26T00:44:52;95484.00;;;19.78;46.46
30682;BME280;17439;48.092;11.842;2023-06-26T00:47:19;95486.22;;;19.72;46.60
30682;BME280;17439;48.092;11.842;2023-06-26T00:49:47;95481.41;;;19.66;46.86
30682;BME280;17439;48.092;11.842;2023-06-26T00:52:14;95478.97;;;19.61;47.00
30682;BME280;17439;48.092;11.842;2023-06-26T00:54:41;95484.78;;;19.55;46.97
30682;BME280;17439;48.092;11.842;2023-06-26T00:57:08;95483.13;;;19.51;46.88
30682;BME280;17439;48.092;11.842;2023-06-26T00:59:35;95488.59;;;19.47;47.00
30682;BME280;17439;48.092;11.842;2023-06-26T01:02:02;95482.66;;;19.45;46.87
30682;BME280;17439;48.092;11.842;2023-06-26T01:04:29;95484.19;;;19.43;46.74
30682;BME280;17439;48.092;11.842;2023-06-26T01:07:01;95482.16;;;19.39;47.25
30682;BME280;17439;48.092;11.842;2023-06-26T01:09:29;95483.31;;;19.38;46.57
30682;BME280;17439;48.092;11.842;2023-06-26T01:11:57;95481.72;;;19.37;46.58
30682;BME280;17439;48.092;11.842;2023-06-26T01:14:24;95480.16;;;19.36;46.29
30682;BME280;17439;48.092;11.842;2023-06-26T01:16:51;95483.28;;;19.35;46.30
30682;BME280;17439;48.092;11.842;2023-06-26T01:19:27;95484.78;;;19.32;47.22
30682;BME280;17439;48.092;11.842;2023-06-26T01:22:02;95481.25;;;19.32;47.17
30682;BME280;17439;48.092;11.842;2023-06-26T01:24:35;95480.84;;;19.30;46.24
30682;BME280;17439;48.092;11.842;2023-06-26T01:27:04;95484.72;;;19.29;46.15
30682;BME280;17439;48.092;11.842;2023-06-26T01:29:33;95477.63;;;19.28;46.02
30682;BME280;17439;48.092;11.842;2023-06-26T01:32:00;95479.97;;;19.26;46.05
30682;BME280;17439;48.092;11.842;2023-06-26T01:34:28;95478.38;;;19.25;46.00
30682;BME280;17439;48.092;11.842;2023-06-26T01:36:56;95472.09;;;19.24;45.86
30682;BME280;17439;48.092;11.842;2023-06-26T01:39:22;95471.31;;;19.24;45.92
30682;BME280;17439;48.092;11.842;2023-06-26T01:41:50;95478.38;;;19.25;46.09
30682;BME280;17439;48.092;11.842;2023-06-26T01:44:28;95473.59;;;19.21;46.77
30682;BME280;17439;48.092;11.842;2023-06-26T01:47:02;95462.59;;;19.21;46.76
30682;BME280;17439;48.092;11.842;2023-06-26T01:49:41;95476.34;;;19.21;46.72
30682;BME280;17439;48.092;11.842;2023-06-26T01:52:21;95475.56;;;19.21;46.66
30682;BME280;17439;48.092;11.842;2023-06-26T01:55:14;95475.94;;;19.19;46.23
30682;BME280;17439;48.092;11.842;2023-06-26T01:57:43;95480.28;;;19.20;46.36
30682;BME280;17439;48.092;11.842;2023-06-26T02:00:15;95474.38;;;19.18;46.15
30682;BME280;17439;48.092;11.842;2023-06-26T02:02:42;95476.66;;;19.16;46.08
30682;BME280;17439;48.092;11.842;2023-06-26T02:05:12;95469.59;;;19.15;46.05
30682;BME280;17439;48.092;11.842;2023-06-26T02:07:39;95481.75;;;19.14;46.02
30682;BME280;17439;48.092;11.842;2023-06-26T02:10:06;95475.81;;;19.12;46.06
30682;BME280;17439;48.092;11.842;2023-06-26T02:12:34;95478.13;;;19.10;46.19
30682;BME280;17439;48.092;11.842;2023-06-26T02:15:02;95476.53;;;19.09;46.14
30682;BME280;17439;48.092;11.842;2023-06-26T02:17:29;95481.59;;;19.07;46.22
30682;BME280;17439;48.092;11.842;2023-06-26T02:19:56;95467.44;;;19.05;46.24
30682;BME280;17439;48.092;11.842;2023-06-26T02:22:26;95477.63;;;19.05;46.08
30682;BME280;17439;48.092;11.842;2023-06-26T02:24:53;95477.19;;;19.02;46.50
30682;BME280;17439;48.092;11.842;2023-06-26T02:27:19;95480.31;;;19.01;46.42
30682;BME280;17439;48.092;11.842;2023-06-26T02:29:46;95488.13;;;18.99;46.27
30682;BME280;17439;48.092;11.842;2023-06-26T02:32:13;95478.31;;;18.98;46.46
30682;BME280;17439;48.092;11.842;2023-06-26T02:34:40;95476.28;;;18.95;46.40
30682;BME280;17439;48.092;11.842;2023-06-26T02:37:07;95478.59;;;18.93;46.17
30682;BME280;17439;48.092;11.842;2023-06-26T02:39:34;95478.16;;;18.91;46.20
30682;BME280;17439;48.092;11.842;2023-06-26T02:42:01;95474.63;;;18.90;46.11
30682;BME280;17439;48.092;11.842;2023-06-26T02:44:27;95480.84;;;18.87;46.20
30682;BME280;17439;48.092;11.842;2023-06-26T02:46:54;95478.47;;;18.85;46.44
30682;BME280;17439;48.092;11.842;2023-06-26T02:49:21;95480.75;;;18.83;46.42
30682;BME280;17439;48.092;11.842;2023-06-26T02:51:49;95475.19;;;18.80;46.30
30682;BME280;17439;48.092;11.842;2023-06-26T02:54:23;95475.91;;;18.77;46.34
30682;BME280;17439;48.092;11.842;2023-06-26T02:56:53;95479.00;;;18.75;46.50
30682;BME280;17439;48.092;11.842;2023-06-26T02:59:25;95486.03;;;18.73;46.64
30682;BME280;17439;48.092;11.842;2023-06-26T03:01:53;95475.78;;;18.70;46.79
30682;BME280;17439;48.092;11.842;2023-06-26T03:04:26;95481.63;;;18.68;46.69
30682;BME280;17439;48.092;11.842;2023-06-26T03:06:53;95485.09;;;18.65;46.87
30682;BME280;17439;48.092;11.842;2023-06-26T03:09:20;95485.88;;;18.65;47.08
30682;BME280;17439;48.092;11.842;2023-06-26T03:11:48;95485.81;;;18.62;46.90
30682;BME280;17439;48.092;11.842;2023-06-26T03:14:15;95483.88;;;18.62;46.89
30682;BME280;17439;48.092;11.842;2023-06-26T03:16:41;95474.84;;;18.62;47.13
30682;BME280;17439;48.092;11.842;2023-06-26T03:19:09;95481.47;;;18.61;47.17
30682;BME280;17439;48.092;11.842;2023-06-26T03:21:55;95479.09;;;18.59;46.92
30682;BME280;17439;48.092;11.842;2023-06-26T03:24:22;95474.78;;;18.58;47.17
30682;BME280;17439;48.092;11.842;2023-06-26T03:26:49;95472.41;;;18.57;47.31
30682;BME280;17439;48.092;11.842;2023-06-26T03:29:16;95472.41;;;18.57;47.36
30682;BME280;17439;48.092;11.842;2023-06-26T03:31:43;95473.19;;;18.57;47.62
30682;BME280;17439;48.092;11.842;2023-06-26T03:34:09;95472.41;;;18.57;47.68
30682;BME280;17439;48.092;11.842;2023-06-26T03:36:36;95478.66;;;18.57;47.74
30682;BME280;17439;48.092;11.842;2023-06-26T03:39:03;95481.06;;;18.59;47.79
30682;BME280;17439;48.092;11.842;2023-06-26T03:41:30;95477.94;;;18.60;48.00
30682;BME280;17439;48.092;11.842;2023-06-26T03:43:57;95481.47;;;18.61;47.97
30682;BME280;17439;48.092;11.842;2023-06-26T03:46:29;95487.44;;;18.63;48.14
30682;BME280;17439;48.092;11.842;2023-06-26T03:48:56;95478.81;;;18.64;47.83
30682;BME280;17439;48.092;11.842;2023-06-26T03:51:23;95483.59;;;18.67;47.84
30682;BME280;17439;48.092;11.842;2023-06-26T03:53:50;95486.75;;;18.70;48.15
30682;BME280;17439;48.092;11.842;2023-06-26T03:56:17;95486.41;;;18.71;48.13
30682;BME280;17439;48.092;11.842;2023-06-26T03:58:43;95488.44;;;18.74;48.14
30682;BME280;17439;48.092;11.842;2023-06-26T04:01:10;95491.97;;;18.75;48.68
30682;BME280;17439;48.092;11.842;2023-06-26T04:03:37;95486.09;;;18.76;48.58
30682;BME280;17439;48.092;11.842;2023-06-26T04:06:04;95483.78;;;18.78;48.59
30682;BME280;17439;48.092;11.842;2023-06-26T04:08:30;95488.53;;;18.81;48.53
30682;BME280;17439;48.092;11.842;2023-06-26T04:10:57;95487.06;;;18.84;48.42
30682;BME280;17439;48.092;11.842;2023-06-26T04:13:25;95481.63;;;18.88;48.49
30682;BME280;17439;48.092;11.842;2023-06-26T04:15:51;95480.53;;;18.92;48.48
30682;BME280;17439;48.092;11.842;2023-06-26T04:18:18;95482.19;;;18.97;48.96
30682;BME280;17439;48.092;11.842;2023-06-26T04:21:07;95487.44;;;19.06;49.08
30682;BME280;17439;48.092;11.842;2023-06-26T04:23:35;95486.91;;;19.19;50.01
30682;BME280;17439;48.092;11.842;2023-06-26T04:26:02;95487.63;;;19.36;50.43
30682;BME280;17439;48.092;11.842;2023-06-26T04:28:28;95493.03;;;19.55;50.44
30682;BME280;17439;48.092;11.842;2023-06-26T04:30:55;95487.91;;;19.77;50.25
30682;BME280;17439;48.092;11.842;2023-06-26T04:33:22;95482.72;;;19.99;50.57
30682;BME280;17439;48.092;11.842;2023-06-26T04:35:49;95488.16;;;20.22;50.02
30682;BME280;17439;48.092;11.842;2023-06-26T04:38:15;95483.34;;;20.45;49.81
30682;BME280;17439;48.092;11.842;2023-06-26T04:40:42;95484.88;;;20.70;49.38
30682;BME280;17439;48.092;11.842;2023-06-26T04:43:09;95490.22;;;20.93;49.15
30682;BME280;17439;48.092;11.842;2023-06-26T04:45:35;95484.59;;;21.16;48.95
30682;BME280;17439;48.092;11.842;2023-06-26T04:48:03;95480.84;;;21.38;48.60
30682;BME280;17439;48.092;11.842;2023-06-26T04:50:30;95489.31;;;21.60;48.21
30682;BME280;17439;48.092;11.842;2023-06-26T04:52:57;95481.22;;;21.78;47.53
30682;BME280;17439;48.092;11.842;2023-06-26T04:55:23;95470.66;;;21.95;46.41
30682;BME280;17439;48.092;11.842;2023-06-26T04:57:51;95477.84;;;22.06;45.87
30682;BME280;17439;48.092;11.842;2023-06-26T05:00:18;95474.34;;;22.13;45.21
30682;BME280;17439;48.092;11.842;2023-06-26T05:02:45;95473.19;;;22.18;44.96
30682;BME280;17439;48.092;11.842;2023-06-26T05:05:12;95480.28;;;22.19;44.82
30682;BME280;17439;48.092;11.842;2023-06-26T05:07:41;95475.13;;;22.17;44.57
30682;BME280;17439;48.092;11.842;2023-06-26T05:10:08;95479.47;;;22.15;44.84
30682;BME280;17439;48.092;11.842;2023-06-26T05:12:34;95482.63;;;22.13;44.67
30682;BME280;17439;48.092;11.842;2023-06-26T05:15:01;95482.19;;;22.11;44.92
30682;BME280;17439;48.092;11.842;2023-06-26T05:17:28;95479.81;;;22.09;44.87
30682;BME280;17439;48.092;11.842;2023-06-26T05:19:54;95473.91;;;22.07;45.00
30682;BME280;17439;48.092;11.842;2023-06-26T05:22:22;95479.03;;;22.05;44.84
30682;BME280;17439;48.092;11.842;2023-06-26T05:24:50;95474.66;;;22.01;45.15
30682;BME280;17439;48.092;11.842;2023-06-26T05:27:18;95480.19;;;22.01;45.29
30682;BME280;17439;48.092;11.842;2023-06-26T05:29:45;95468.34;;;22.00;45.28
30682;BME280;17439;48.092;11.842;2023-06-26T05:32:15;95481.38;;;22.03;45.36
30682;BME280;17439;48.092;11.842;2023-06-26T05:34:46;95471.91;;;22.04;45.07
30682;BME280;17439;48.092;11.842;2023-06-26T05:37:16;95478.25;;;22.08;45.11
30682;BME280;17439;48.092;11.842;2023-06-26T05:39:45;95473.53;;;22.13;45.30
30682;BME280;17439;48.092;11.842;2023-06-26T05:42:12;95474.75;;;22.19;45.53
30682;BME280;17439;48.092;11.842;2023-06-26T05:44:39;95479.94;;;22.27;45.37
30682;BME280;17439;48.092;11.842;2023-06-26T05:47:06;95465.41;;;22.34;45.35
30682;BME280;17439;48.092;11.842;2023-06-26T05:49:33;95476.50;;;22.41;45.35
30682;BME280;17439;48.092;11.842;2023-06-26T05:52:00;95470.63;;;22.50;44.94
30682;BME280;17439;48.092;11.842;2023-06-26T05:54:27;95478.13;;;22.60;44.68
30682;BME280;17439;48.092;11.842;2023-06-26T05:56:57;95481.34;;;22.70;44.17
30682;BME280;17439;48.092;11.842;2023-06-26T05:59:24;95478.63;;;22.80;44.70
30682;BME280;17439;48.092;11.842;2023-06-26T06:01:52;95473.53;;;22.90;44.65
30682;BME280;17439;48.092;11.842;2023-06-26T06:04:19;95467.22;;;23.00;44.41
30682;BME280;17439;48.092;11.842;2023-06-26T06:06:45;95466.50;;;23.10;43.72
30682;BME280;17439;48.092;11.842;2023-06-26T06:09:12;95466.53;;;23.21;43.41
30682;BME280;17439;48.092;11.842;2023-06-26T06:11:39;95474.81;;;23.32;43.25
30682;BME280;17439;48.092;11.842;2023-06-26T06:14:06;95470.91;;;23.40;43.28
30682;BME280;17439;48.092;11.842;2023-06-26T06:16:33;95467.34;;;23.50;43.30
30682;BME280;17439;48.092;11.842;2023-06-26T06:18:59;95468.53;;;23.60;42.96
30682;BME280;17439;48.092;11.842;2023-06-26T06:21:26;95468.91;;;23.69;42.76
30682;BME280;17439;48.092;11.842;2023-06-26T06:23:53;95467.31;;;23.79;42.70
30682;BME280;17439;48.092;11.842;2023-06-26T06:26:20;95471.31;;;23.89;42.87
30682;BME280;17439;48.092;11.842;2023-06-26T06:28:46;95476.06;;;23.99;42.58
30682;BME280;17439;48.092;11.842;2023-06-26T06:31:13;95468.13;;;24.08;42.23
30682;BME280;17439;48.092;11.842;2023-06-26T06:33:40;95465.72;;;24.18;41.89
30682;BME280;17439;48.092;11.842;2023-06-26T06:36:07;95464.91;;;24.28;42.05
30682;BME280;17439;48.092;11.842;2023-06-26T06:38:33;95461.31;;;24.38;41.92
30682;BME280;17439;48.092;11.842;2023-06-26T06:41:00;95456.91;;;24.48;41.92
30682;BME280;17439;48.092;11.842;2023-06-26T06:43:27;95463.28;;;24.59;42.09
30682;BME280;17439;48.092;11.842;2023-06-26T06:45:53;95469.97;;;24.69;41.83
30682;BME280;17439;48.092;11.842;2023-06-26T06:48:20;95463.19;;;24.77;41.30
30682;BME280;17439;48.092;11.842;2023-06-26T06:50:47;95461.53;;;24.87;41.44
30682;BME280;17439;48.092;11.842;2023-06-26T06:53:14;95458.75;;;24.94;40.92
30682;BME280;17439;48.092;11.842;2023-06-26T06:55:40;95466.22;;;25.05;40.59
30682;BME280;17439;48.092;11.842;2023-06-26T06:58:07;95469.31;;;25.14;40.52
30682;BME280;17439;48.092;11.842;2023-06-26T07:00:33;95465.31;;;25.22;39.46
30682;BME280;17439;48.092;11.842;2023-06-26T07:03:00;95463.69;;;25.32;39.43
30682;BME280;17439;48.092;11.842;2023-06-26T07:05:30;95465.22;;;25.40;39.58
30682;BME280;17439;48.092;11.842;2023-06-26T07:07:57;95464.78;;;25.49;39.45
30682;BME280;17439;48.092;11.842;2023-06-26T07:10:27;95465.47;;;25.60;38.61
30682;BME280;17439;48.092;11.842;2023-06-26T07:12:54;95463.84;;;25.66;38.38
30682;BME280;17439;48.092;11.842;2023-06-26T07:15:21;95468.13;;;25.75;38.61
30682;BME280;17439;48.092;11.842;2023-06-26T07:17:48;95457.38;;;25.80;38.43
30682;BME280;17439;48.092;11.842;2023-06-26T07:20:15;95462.84;;;25.87;37.81
30682;BME280;17439;48.092;11.842;2023-06-26T07:22:42;95469.13;;;25.95;37.49
30682;BME280;17439;48.092;11.842;2023-06-26T07:25:09;95449.28;;;26.00;37.50
30682;BME280;17439;48.092;11.842;2023-06-26T07:27:40;95456.75;;;26.07;37.31
30682;BME280;17439;48.092;11.842;2023-06-26T07:30:08;95448.72;;;26.16;38.00
30682;BME280;17439;48.092;11.842;2023-06-26T07:32:35;95460.19;;;26.22;37.49
30682;BME280;17439;48.092;11.842;2023-06-26T07:35:02;95462.06;;;26.32;37.53
30682;BME280;17439;48.092;11.842;2023-06-26T07:37:29;95456.44;;;26.39;37.34
30682;BME280;17439;48.092;11.842;2023-06-26T07:39:55;95460.69;;;26.48;37.22
30682;BME280;17439;48.092;11.842;2023-06-26T07:42:22;95459.41;;;26.56;36.88
30682;BME280;17439;48.092;11.842;2023-06-26T07:44:49;95452.19;;;26.62;36.80
30682;BME280;17439;48.092;11.842;2023-06-26T07:47:15;95456.91;;;26.69;36.81
30682;BME280;17439;48.092;11.842;2023-06-26T07:49:42;95459.63;;;26.72;36.42
30682;BME280;17439;48.092;11.842;2023-06-26T07:52:09;95453.56;;;26.81;36.85
30682;BME280;17439;48.092;11.842;2023-06-26T07:54:36;95451.09;;;26.87;36.10
30682;BME280;17439;48.092;11.842;2023-06-26T07:57:04;95451.78;;;26.94;36.20
30682;BME280;17439;48.092;11.842;2023-06-26T07:59:31;95449.28;;;27.04;36.21
30682;BME280;17439;48.092;11.842;2023-06-26T08:01:58;95445.19;;;27.12;35.97
30682;BME280;17439;48.092;11.842;2023-06-26T08:04:27;95444.69;;;27.21;35.46
30682;BME280;17439;48.092;11.842;2023-06-26T08:06:56;95457.69;;;27.31;35.11
30682;BME280;17439;48.092;11.842;2023-06-26T08:09:25;95455.56;;;27.39;34.95
30682;BME280;17439;48.092;11.842;2023-06-26T08:11:52;95440.34;;;27.47;34.67
30682;BME280;17439;48.092;11.842;2023-06-26T08:14:19;95440.25;;;27.54;34.23
30682;BME280;17439;48.092;11.842;2023-06-26T08:16:47;95437.75;;;27.60;34.73
30682;BME280;17439;48.092;11.842;2023-06-26T08:19:15;95442.44;;;27.66;34.07
30682;BME280;17439;48.092;11.842;2023-06-26T08:21:43;95442.66;;;27.76;34.36
30682;BME280;17439;48.092;11.842;2023-06-26T08:24:10;95444.13;;;27.84;34.34
30682;BME280;17439;48.092;11.842;2023-06-26T08:26:37;95447.97;;;27.90;33.76
30682;BME280;17439;48.092;11.842;2023-06-26T08:29:04;95443.09;;;27.98;33.92
30682;BME280;17439;48.092;11.842;2023-06-26T08:31:31;95438.19;;;28.05;33.89
30682;BME280;17439;48.092;11.842;2023-06-26T08:33:57;95439.22;;;28.15;33.26
30682;BME280;17439;48.092;11.842;2023-06-26T08:36:24;95443.44;;;28.23;32.93
30682;BME280;17439;48.092;11.842;2023-06-26T08:38:51;95441.31;;;28.31;33.67
30682;BME280;17439;48.092;11.842;2023-06-26T08:41:17;95426.09;;;28.36;33.31
30682;BME280;17439;48.092;11.842;2023-06-26T08:43:44;95441.44;;;28.44;32.99
30682;BME280;17439;48.092;11.842;2023-06-26T08:46:11;95442.53;;;28.50;32.97
30682;BME280;17439;48.092;11.842;2023-06-26T08:48:39;95440.47;;;28.54;32.88
30682;BME280;17439;48.092;11.842;2023-06-26T08:51:09;95433.56;;;28.63;32.78
30682;BME280;17439;48.092;11.842;2023-06-26T08:53:59;95435.06;;;28.67;33.00
30682;BME280;17439;48.092;11.842;2023-06-26T08:56:29;95424.91;;;28.77;32.87
30682;BME280;17439;48.092;11.842;2023-06-26T08:58:58;95433.13;;;28.84;33.01
30682;BME280;17439;48.092;11.842;2023-06-26T09:01:25;95429.72;;;28.93;32.84
30682;BME280;17439;48.092;11.842;2023-06-26T09:03:52;95430.81;;;28.99;32.74
30682;BME280;17439;48.092;11.842;2023-06-26T09:06:19;95428.97;;;29.09;32.71
30682;BME280;17439;48.092;11.842;2023-06-26T09:08:46;95423.59;;;29.18;32.32
30682;BME280;17439;48.092;11.842;2023-06-26T09:11:13;95415.88;;;29.26;32.06
30682;BME280;17439;48.092;11.842;2023-06-26T09:13:40;95410.56;;;29.31;32.10
30682;BME280;17439;48.092;11.842;2023-06-26T09:16:07;95409.25;;;29.36;31.86
30682;BME280;17439;48.092;11.842;2023-06-26T09:18:34;95413.09;;;29.42;31.99
30682;BME280;17439;48.092;11.842;2023-06-26T09:21:08;95405.69;;;29.52;31.29
30682;BME280;17439;48.092;11.842;2023-06-26T09:23:36;95398.69;;;29.60;31.35
30682;BME280;17439;48.092;11.842;2023-06-26T09:26:05;95397.31;;;29.69;31.13
30682;BME280;17439;48.092;11.842;2023-06-26T09:28:34;95399.47;;;29.77;29.98
30682;BME280;17439;48.092;11.842;2023-06-26T09:31:05;95397.31;;;29.85;29.92
30682;BME280;17439;48.092;11.842;2023-06-26T09:33:35;95399.66;;;29.87;30.33
30682;BME280;17439;48.092;11.842;2023-06-26T09:36:07;95399.03;;;29.95;30.49
30682;BME280;17439;48.092;11.842;2023-06-26T09:38:34;95391.13;;;30.07;30.55
30682;BME280;17439;48.092;11.842;2023-06-26T09:41:05;95402.59;;;30.12;29.73
30682;BME280;17439;48.092;11.842;2023-06-26T09:43:32;95396.88;;;30.16;29.53
30682;BME280;17439;48.092;11.842;2023-06-26T09:46:00;95405.09;;;30.23;29.29
30682;BME280;17439;48.092;11.842;2023-06-26T09:48:28;95397.47;;;30.24;29.03
30682;BME280;17439;48.092;11.842;2023-06-26T09:50:55;95402.97;;;30.27;28.84
30682;BME280;17439;48.092;11.842;2023-06-26T09:53:41;95395.63;;;30.33;28.79
30682;BME280;17439;48.092;11.842;2023-06-26T09:56:15;95385.94;;;30.38;28.91
30682;BME280;17439;48.092;11.842;2023-06-26T09:58:43;95378.69;;;30.41;29.17
30682;BME280;17439;48.092;11.842;2023-06-26T10:01:10;95386.19;;;30.44;29.13
30682;BME280;17439;48.092;11.842;2023-06-26T10:03:37;95382.06;;;30.48;28.46
30682;BME280;17439;48.092;11.842;2023-06-26T10:06:04;95376.03;;;30.50;28.38
30682;BME280;17439;48.092;11.842;2023-06-26T10:08:33;95372.09;;;30.47;28.08
30682;BME280;17439;48.092;11.842;2023-06-26T10:11:00;95378.47;;;30.48;28.99
30682;BME280;17439;48.092;11.842;2023-06-26T10:13:31;95378.47;;;30.48;28.97
30682;BME280;17439;48.092;11.842;2023-06-26T10:16:00;95374.00;;;30.50;28.78
30682;BME280;17439;48.092;11.842;2023-06-26T10:18:27;95369.19;;;30.51;28.89
30682;BME280;17439;48.092;11.842;2023-06-26T10:20:58;95359.91;;;30.54;28.64
30682;BME280;17439;48.092;11.842;2023-06-26T10:23:27;95369.66;;;30.62;28.70
30682;BME280;17439;48.092;11.842;2023-06-26T10:25:55;95361.19;;;30.66;28.77
30682;BME280;17439;48.092;11.842;2023-06-26T10:28:25;95363.31;;;30.74;28.49
30682;BME280;17439;48.092;11.842;2023-06-26T10:30:54;95365.53;;;30.80;28.69
30682;BME280;17439;48.092;11.842;2023-06-26T10:33:22;95359.06;;;30.83;28.69
30682;BME280;17439;48.092;11.842;2023-06-26T10:35:49;95358.16;;;30.86;28.67
30682;BME280;17439;48.092;11.842;2023-06-26T10:38:16;95358.41;;;30.91;29.05
30682;BME280;17439;48.092;11.842;2023-06-26T10:40:45;95361.78;;;30.99;28.40
30682;BME280;17439;48.092;11.842;2023-06-26T10:43:13;95363.59;;;31.06;28.01
30682;BME280;17439;48.092;11.842;2023-06-26T10:45:47;95361.44;;;31.10;26.52
30682;BME280;17439;48.092;11.842;2023-06-26T10:48:14;95354.16;;;31.13;27.56
30682;BME280;17439;48.092;11.842;2023-06-26T10:50:41;95362.00;;;31.18;27.90
30682;BME280;17439;48.092;11.842;2023-06-26T10:53:14;95349.69;;;31.28;26.97
30682;BME280;17439;48.092;11.842;2023-06-26T10:55:43;95350.25;;;31.36;27.16
30682;BME280;17439;48.092;11.842;2023-06-26T11:03:39;95346.47;;;31.77;27.06
30682;BME280;17439;48.092;11.842;2023-06-26T11:06:09;95350.34;;;31.93;25.66
30682;BME280;17439;48.092;11.842;2023-06-26T11:08:48;95339.56;;;32.04;25.87
30682;BME280;17439;48.092;11.842;2023-06-26T11:11:16;95336.31;;;32.28;24.99
30682;BME280;17439;48.092;11.842;2023-06-26T11:13:45;95340.53;;;32.32;25.81
30682;BME280;17439;48.092;11.842;2023-06-26T11:16:13;95340.16;;;32.43;26.46
30682;BME280;17439;48.092;11.842;2023-06-26T11:18:41;95336.34;;;32.59;26.14
30682;BME280;17439;48.092;11.842;2023-06-26T11:21:09;95338.47;;;32.68;25.87
30682;BME280;17439;48.092;11.842;2023-06-26T11:23:37;95348.34;;;32.82;25.38
30682;BME280;17439;48.092;11.842;2023-06-26T11:26:18;95342.31;;;32.93;24.10
30682;BME280;17439;48.092;11.842;2023-06-26T11:28:48;95332.81;;;32.99;23.60
30682;BME280;17439;48.092;11.842;2023-06-26T11:31:31;95341.59;;;33.01;24.59
30682;BME280;17439;48.092;11.842;2023-06-26T11:34:00;95334.41;;;33.00;24.40
30682;BME280;17439;48.092;11.842;2023-06-26T11:36:27;95326.44;;;32.99;24.53
30682;BME280;17439;48.092;11.842;2023-06-26T11:38:58;95335.94;;;32.92;23.91
30682;BME280;17439;48.092;11.842;2023-06-26T11:41:27;95326.41;;;32.89;24.55
30682;BME280;17439;48.092;11.842;2023-06-26T11:43:54;95319.34;;;32.85;24.77
30682;BME280;17439;48.092;11.842;2023-06-26T11:46:22;95327.00;;;32.84;24.95
30682;BME280;17439;48.092;11.842;2023-06-26T11:48:49;95322.97;;;32.85;25.10
30682;BME280;17439;48.092;11.842;2023-06-26T11:51:16;95320.16;;;32.85;24.95
30682;BME280;17439;48.092;11.842;2023-06-26T11:53:44;95323.28;;;32.87;24.86
30682;BME280;17439;48.092;11.842;2023-06-26T11:56:13;95312.56;;;32.95;23.98
30682;BME280;17439;48.092;11.842;2023-06-26T12:01:41;95315.97;;;32.99;24.73
30682;BME280;17439;48.092;11.842;2023-06-26T12:04:10;95312.41;;;32.99;24.37
30682;BME280;17439;48.092;11.842;2023-06-26T12:06:40;95299.06;;;33.12;24.32
30682;BME280;17439;48.092;11.842;2023-06-26T12:09:11;95320.41;;;33.09;24.00
30682;BME280;17439;48.092;11.842;2023-06-26T12:11:41;95304.19;;;33.14;24.26
30682;BME280;17439;48.092;11.842;2023-06-26T12:14:09;95312.03;;;33.19;24.71
30682;BME280;17439;48.092;11.842;2023-06-26T12:16:36;95313.94;;;33.22;24.39
30682;BME280;17439;48.092;11.842;2023-06-26T12:19:05;95300.97;;;33.24;24.55
30682;BME280;17439;48.092;11.842;2023-06-26T12:24:05;95303.50;;;33.32;23.92
30682;BME280;17439;48.092;11.842;2023-06-26T12:26:33;95303.16;;;33.30;24.32
30682;BME280;17439;48.092;11.842;2023-06-26T12:29:10;95317.81;;;33.24;24.25
30682;BME280;17439;48.092;11.842;2023-06-26T12:31:58;95310.00;;;33.19;24.45
30682;BME280;17439;48.092;11.842;2023-06-26T12:34:31;95321.25;;;33.19;24.52
30682;BME280;17439;48.092;11.842;2023-06-26T12:37:06;95315.81;;;33.25;24.58
30682;BME280;17439;48.092;11.842;2023-06-26T12:39:50;95310.50;;;33.27;24.31
30682;BME280;17439;48.092;11.842;2023-06-26T12:42:19;95297.72;;;33.35;24.62
30682;BME280;17439;48.092;11.842;2023-06-26T12:44:46;95295.09;;;33.41;24.78
30682;BME280;17439;48.092;11.842;2023-06-26T12:47:14;95295.41;;;33.52;24.69
30682;BME280;17439;48.092;11.842;2023-06-26T12:49:43;95287.00;;;33.61;24.25
30682;BME280;17439;48.092;11.842;2023-06-26T12:52:12;95290.44;;;33.66;24.36
30682;BME280;17439;48.092;11.842;2023-06-26T12:54:40;95297.31;;;33.74;24.11
30682;BME280;17439;48.092;11.842;2023-06-26T12:57:07;95289.66;;;33.84;23.17
30682;BME280;17439;48.092;11.842;2023-06-26T12:59:37;95285.78;;;33.81;23.43
30682;BME280;17439;48.092;11.842;2023-06-26T13:02:05;95281.88;;;33.88;23.48
30682;BME280;17439;48.092;11.842;2023-06-26T13:04:33;95291.56;;;33.96;23.41
30682;BME280;17439;48.092;11.842;2023-06-26T13:06:59;95288.09;;;34.01;23.14